Hlavní strana
METAR-TAF:

METAR-TAF

Letiště :

Šíráz, Írán

zeměpisná šířka: 29-32N, zeměpisná délka: 052-35E, výška: 1486 m

Aktuální stav počasí

Zpráva byla vytvořena před 18 minutami, v 02:00 UTC
Bezvětří
Teplota 11°C
Vlhkost vzduchu 50%
Tlak 1024 hPa
Viditelnost 10 km a více
Žádná oblačnost pod 1500 m, nevyskytují se cumulonimby.

METAR: OISS 180200Z 00000KT CAVOK 11/01 Q1023 A3023

Čas: 05:48 (02:18 UTC)

Předpověď počasí

Zpráva byla vytvořena před 3 hodinami a 8 minutami, v 23:10 UTC
Předpověď platná od 18 v 00 UTC do 19 v 06 UTC
Severozápadní vítr 6 kt
Viditelnost 10 km a více
Žádná oblačnost pod 1500 m, nevyskytují se cumulonimby.
Dočasný
od 18 v 12 UTC do 18 v 16 UTC
Východní vítr 16 kt
Skoro jasno ve výšce 4000 ft, Cumulonimbus.
Polojasno ve výšce 10000 ft

TAF: OISS 172310Z 1800/1906 31006KT CAVOK TEMPO 1812/1816 08016KT FEW040CB SCT100

Stav a předpovědi počasí z více než 4 000 letišť (zprávy METAR a TAF).

Červené a žluté tečky na mapě představují dostupné meteorologické stanice.

Když kurzor umístíte na tečku, zobrazí se název stanice.

Pak kliknutím zobrazíte stav a předpověď počasí.

Chcete-li změnit mapu, kliknutím na zelené tlačítko se znaménkem +mapu přiblížíte, kliknutím na zelené tlačítko se znaménkem – mapu oddálíte a kliknutím na zelené šipky přejdete na sousední mapy.


METAR-TAF: